sensor_id;sensor_type;location;lat;lon;timestamp;temperature;humidity
68746;SHT31;66104;45.456;11.064;2023-04-28T00:00:12;14.23;51.60
68746;SHT31;66104;45.456;11.064;2023-04-28T00:02:54;14.21;51.70
68746;SHT31;66104;45.456;11.064;2023-04-28T00:05:38;14.19;51.91
68746;SHT31;66104;45.456;11.064;2023-04-28T00:08:20;14.17;52.00
68746;SHT31;66104;45.456;11.064;2023-04-28T00:11:02;14.16;52.05
68746;SHT31;66104;45.456;11.064;2023-04-28T00:13:45;14.15;52.24
68746;SHT31;66104;45.456;11.064;2023-04-28T00:16:31;14.13;52.28
68746;SHT31;66104;45.456;11.064;2023-04-28T00:19:17;14.12;52.23
68746;SHT31;66104;45.456;11.064;2023-04-28T00:22:05;14.13;52.12
68746;SHT31;66104;45.456;11.064;2023-04-28T00:25:06;14.13;52.26
68746;SHT31;66104;45.456;11.064;2023-04-28T00:27:47;14.13;52.46
68746;SHT31;66104;45.456;11.064;2023-04-28T00:30:28;14.11;52.60
68746;SHT31;66104;45.456;11.064;2023-04-28T00:33:10;14.10;52.47
68746;SHT31;66104;45.456;11.064;2023-04-28T00:35:53;14.10;52.59
68746;SHT31;66104;45.456;11.064;2023-04-28T00:38:37;14.09;52.71
68746;SHT31;66104;45.456;11.064;2023-04-28T00:41:22;14.06;52.86
68746;SHT31;66104;45.456;11.064;2023-04-28T00:46:57;14.07;53.31
68746;SHT31;66104;45.456;11.064;2023-04-28T00:49:38;14.06;53.54
68746;SHT31;66104;45.456;11.064;2023-04-28T00:52:18;14.05;53.71
68746;SHT31;66104;45.456;11.064;2023-04-28T00:54:57;14.03;53.98
68746;SHT31;66104;45.456;11.064;2023-04-28T00:57:40;14.00;54.05
68746;SHT31;66104;45.456;11.064;2023-04-28T01:00:20;13.99;54.17
68746;SHT31;66104;45.456;11.064;2023-04-28T01:03:00;13.98;54.21
68746;SHT31;66104;45.456;11.064;2023-04-28T01:05:39;13.99;54.22
68746;SHT31;66104;45.456;11.064;2023-04-28T01:08:24;13.97;54.39
68746;SHT31;66104;45.456;11.064;2023-04-28T01:11:08;13.97;54.35
68746;SHT31;66104;45.456;11.064;2023-04-28T01:14:12;13.96;54.50
68746;SHT31;66104;45.456;11.064;2023-04-28T01:16:50;13.96;54.49
68746;SHT31;66104;45.456;11.064;2023-04-28T01:19:30;13.95;54.71
68746;SHT31;66104;45.456;11.064;2023-04-28T01:22:09;13.94;54.94
68746;SHT31;66104;45.456;11.064;2023-04-28T01:24:49;13.95;55.09
68746;SHT31;66104;45.456;11.064;2023-04-28T01:27:28;13.97;55.19
68746;SHT31;66104;45.456;11.064;2023-04-28T01:30:10;13.98;55.33
68746;SHT31;66104;45.456;11.064;2023-04-28T01:32:53;14.00;55.56
68746;SHT31;66104;45.456;11.064;2023-04-28T01:35:34;14.01;55.68
68746;SHT31;66104;45.456;11.064;2023-04-28T01:38:15;14.02;55.81
68746;SHT31;66104;45.456;11.064;2023-04-28T01:40:55;14.04;55.96
68746;SHT31;66104;45.456;11.064;2023-04-28T01:43:34;14.03;56.13
68746;SHT31;66104;45.456;11.064;2023-04-28T01:46:15;14.02;56.23
68746;SHT31;66104;45.456;11.064;2023-04-28T01:48:56;14.03;56.33
68746;SHT31;66104;45.456;11.064;2023-04-28T01:51:37;14.05;56.39
68746;SHT31;66104;45.456;11.064;2023-04-28T01:54:16;14.06;56.43
68746;SHT31;66104;45.456;11.064;2023-04-28T01:56:55;14.06;56.52
68746;SHT31;66104;45.456;11.064;2023-04-28T01:59:35;14.10;56.51
68746;SHT31;66104;45.456;11.064;2023-04-28T02:02:16;14.11;56.57
68746;SHT31;66104;45.456;11.064;2023-04-28T02:04:58;14.14;56.64
68746;SHT31;66104;45.456;11.064;2023-04-28T02:07:39;14.15;56.80
68746;SHT31;66104;45.456;11.064;2023-04-28T02:10:18;14.16;56.76
68746;SHT31;66104;45.456;11.064;2023-04-28T02:12:58;14.18;56.85
68746;SHT31;66104;45.456;11.064;2023-04-28T02:15:41;14.18;56.90
68746;SHT31;66104;45.456;11.064;2023-04-28T02:18:21;14.21;56.88
68746;SHT31;66104;45.456;11.064;2023-04-28T02:21:09;14.23;56.96
68746;SHT31;66104;45.456;11.064;2023-04-28T02:23:49;14.23;57.07
68746;SHT31;66104;45.456;11.064;2023-04-28T02:26:28;14.25;57.06
68746;SHT31;66104;45.456;11.064;2023-04-28T02:29:07;14.23;57.31
68746;SHT31;66104;45.456;11.064;2023-04-28T02:31:49;14.18;57.41
68746;SHT31;66104;45.456;11.064;2023-04-28T02:34:27;14.16;56.91
68746;SHT31;66104;45.456;11.064;2023-04-28T02:37:08;14.04;55.56
68746;SHT31;66104;45.456;11.064;2023-04-28T02:39:46;13.87;55.93
68746;SHT31;66104;45.456;11.064;2023-04-28T02:42:28;13.76;56.28
68746;SHT31;66104;45.456;11.064;2023-04-28T02:45:09;13.72;56.51
68746;SHT31;66104;45.456;11.064;2023-04-28T02:47:51;13.72;57.15
68746;SHT31;66104;45.456;11.064;2023-04-28T02:50:32;13.61;58.10
68746;SHT31;66104;45.456;11.064;2023-04-28T02:53:14;13.52;58.40
68746;SHT31;66104;45.456;11.064;2023-04-28T02:55:55;13.45;58.26
68746;SHT31;66104;45.456;11.064;2023-04-28T02:58:36;13.36;58.04
68746;SHT31;66104;45.456;11.064;2023-04-28T03:01:18;13.30;57.93
68746;SHT31;66104;45.456;11.064;2023-04-28T03:04:00;13.21;58.03
68746;SHT31;66104;45.456;11.064;2023-04-28T03:06:40;13.12;58.10
68746;SHT31;66104;45.456;11.064;2023-04-28T03:09:20;13.08;58.18
68746;SHT31;66104;45.456;11.064;2023-04-28T03:12:00;13.07;58.20
68746;SHT31;66104;45.456;11.064;2023-04-28T03:14:41;13.08;58.21
68746;SHT31;66104;45.456;11.064;2023-04-28T03:17:22;13.10;58.19
68746;SHT31;66104;45.456;11.064;2023-04-28T03:20:06;13.14;58.10
68746;SHT31;66104;45.456;11.064;2023-04-28T03:22:52;13.16;58.10
68746;SHT31;66104;45.456;11.064;2023-04-28T03:25:34;13.17;58.08
68746;SHT31;66104;45.456;11.064;2023-04-28T03:28:16;13.18;58.05
68746;SHT31;66104;45.456;11.064;2023-04-28T03:31:00;13.17;58.11
68746;SHT31;66104;45.456;11.064;2023-04-28T03:33:41;13.17;58.22
68746;SHT31;66104;45.456;11.064;2023-04-28T03:36:23;13.19;58.36
68746;SHT31;66104;45.456;11.064;2023-04-28T03:39:09;13.15;58.60
68746;SHT31;66104;45.456;11.064;2023-04-28T03:41:50;13.12;58.80
68746;SHT31;66104;45.456;11.064;2023-04-28T03:44:50;13.10;58.89
68746;SHT31;66104;45.456;11.064;2023-04-28T03:47:33;13.04;58.99
68746;SHT31;66104;45.456;11.064;2023-04-28T03:50:15;13.01;59.10
68746;SHT31;66104;45.456;11.064;2023-04-28T03:52:58;12.98;59.17
68746;SHT31;66104;45.456;11.064;2023-04-28T03:55:41;12.98;59.16
68746;SHT31;66104;45.456;11.064;2023-04-28T03:58:20;12.97;59.53
68746;SHT31;66104;45.456;11.064;2023-04-28T04:01:01;12.97;59.94
68746;SHT31;66104;45.456;11.064;2023-04-28T04:03:39;12.92;60.37
68746;SHT31;66104;45.456;11.064;2023-04-28T04:06:18;12.90;60.60
68746;SHT31;66104;45.456;11.064;2023-04-28T04:08:59;12.85;60.69
68746;SHT31;66104;45.456;11.064;2023-04-28T04:11:39;12.83;60.76
68746;SHT31;66104;45.456;11.064;2023-04-28T04:14:21;12.81;60.85
68746;SHT31;66104;45.456;11.064;2023-04-28T04:17:00;12.82;60.94
68746;SHT31;66104;45.456;11.064;2023-04-28T04:19:39;12.81;60.93
68746;SHT31;66104;45.456;11.064;2023-04-28T04:22:17;12.81;60.92
68746;SHT31;66104;45.456;11.064;2023-04-28T04:24:57;12.78;61.05
68746;SHT31;66104;45.456;11.064;2023-04-28T04:27:38;12.73;61.24
68746;SHT31;66104;45.456;11.064;2023-04-28T04:30:16;12.69;61.38
68746;SHT31;66104;45.456;11.064;2023-04-28T04:32:55;12.69;61.55
68746;SHT31;66104;45.456;11.064;2023-04-28T04:35:36;12.73;61.54
68746;SHT31;66104;45.456;11.064;2023-04-28T04:38:15;12.77;61.52
68746;SHT31;66104;45.456;11.064;2023-04-28T04:41:02;12.82;61.59
68746;SHT31;66104;45.456;11.064;2023-04-28T04:43:41;12.83;61.55
68746;SHT31;66104;45.456;11.064;2023-04-28T04:46:21;12.82;61.58
68746;SHT31;66104;45.456;11.064;2023-04-28T04:49:00;12.78;61.69
68746;SHT31;66104;45.456;11.064;2023-04-28T04:51:39;12.75;61.81
68746;SHT31;66104;45.456;11.064;2023-04-28T04:54:17;12.74;61.93
68746;SHT31;66104;45.456;11.064;2023-04-28T04:56:58;12.75;62.12
68746;SHT31;66104;45.456;11.064;2023-04-28T05:00:04;12.76;62.31
68746;SHT31;66104;45.456;11.064;2023-04-28T05:02:53;12.76;62.49
68746;SHT31;66104;45.456;11.064;2023-04-28T05:05:32;12.81;62.44
68746;SHT31;66104;45.456;11.064;2023-04-28T05:08:20;12.85;62.35
68746;SHT31;66104;45.456;11.064;2023-04-28T05:11:00;12.87;62.47
68746;SHT31;66104;45.456;11.064;2023-04-28T05:13:41;12.90;62.55
68746;SHT31;66104;45.456;11.064;2023-04-28T05:16:20;12.91;62.58
68746;SHT31;66104;45.456;11.064;2023-04-28T05:19:07;12.95;62.52
68746;SHT31;66104;45.456;11.064;2023-04-28T05:21:46;12.99;62.53
68746;SHT31;66104;45.456;11.064;2023-04-28T05:24:25;13.04;62.51
68746;SHT31;66104;45.456;11.064;2023-04-28T05:27:04;13.07;62.63
68746;SHT31;66104;45.456;11.064;2023-04-28T05:29:43;13.14;62.53
68746;SHT31;66104;45.456;11.064;2023-04-28T05:32:22;13.18;62.60
68746;SHT31;66104;45.456;11.064;2023-04-28T05:35:02;13.28;62.68
68746;SHT31;66104;45.456;11.064;2023-04-28T05:37:44;13.38;62.59
68746;SHT31;66104;45.456;11.064;2023-04-28T05:40:24;13.49;62.58
68746;SHT31;66104;45.456;11.064;2023-04-28T05:43:03;13.56;62.60
68746;SHT31;66104;45.456;11.064;2023-04-28T05:45:42;13.62;62.59
68746;SHT31;66104;45.456;11.064;2023-04-28T05:48:22;13.69;62.39
68746;SHT31;66104;45.456;11.064;2023-04-28T05:51:01;13.77;62.21
68746;SHT31;66104;45.456;11.064;2023-04-28T05:53:40;13.85;62.09
68746;SHT31;66104;45.456;11.064;2023-04-28T05:56:19;13.94;62.07
68746;SHT31;66104;45.456;11.064;2023-04-28T05:58:58;14.03;61.88
68746;SHT31;66104;45.456;11.064;2023-04-28T06:01:36;14.15;61.69
68746;SHT31;66104;45.456;11.064;2023-04-28T06:04:14;14.27;61.43
68746;SHT31;66104;45.456;11.064;2023-04-28T06:06:54;14.39;61.13
68746;SHT31;66104;45.456;11.064;2023-04-28T06:09:34;14.47;60.90
68746;SHT31;66104;45.456;11.064;2023-04-28T06:12:12;14.53;60.88
68746;SHT31;66104;45.456;11.064;2023-04-28T06:14:52;14.61;60.95
68746;SHT31;66104;45.456;11.064;2023-04-28T06:17:32;14.69;60.97
68746;SHT31;66104;45.456;11.064;2023-04-28T06:20:13;14.76;61.16
68746;SHT31;66104;45.456;11.064;2023-04-28T06:22:52;14.83;61.41
68746;SHT31;66104;45.456;11.064;2023-04-28T06:25:30;14.90;61.58
68746;SHT31;66104;45.456;11.064;2023-04-28T06:28:08;14.97;61.77
68746;SHT31;66104;45.456;11.064;2023-04-28T06:30:47;15.01;61.67
68746;SHT31;66104;45.456;11.064;2023-04-28T06:33:25;15.06;61.45
68746;SHT31;66104;45.456;11.064;2023-04-28T06:36:03;15.10;61.25
68746;SHT31;66104;45.456;11.064;2023-04-28T06:38:47;15.15;61.23
68746;SHT31;66104;45.456;11.064;2023-04-28T06:41:24;15.20;61.35
68746;SHT31;66104;45.456;11.064;2023-04-28T06:44:05;15.22;61.17
68746;SHT31;66104;45.456;11.064;2023-04-28T06:46:44;15.28;60.95
68746;SHT31;66104;45.456;11.064;2023-04-28T06:49:23;15.34;60.86
68746;SHT31;66104;45.456;11.064;2023-04-28T06:52:01;15.39;60.90
68746;SHT31;66104;45.456;11.064;2023-04-28T06:54:39;15.47;60.80
68746;SHT31;66104;45.456;11.064;2023-04-28T06:57:18;15.54;60.78
68746;SHT31;66104;45.456;11.064;2023-04-28T06:59:56;15.63;60.69
68746;SHT31;66104;45.456;11.064;2023-04-28T07:02:37;15.71;60.38
68746;SHT31;66104;45.456;11.064;2023-04-28T07:05:17;15.77;59.70
68746;SHT31;66104;45.456;11.064;2023-04-28T07:07:56;15.83;58.75
68746;SHT31;66104;45.456;11.064;2023-04-28T07:10:34;15.91;58.61
68746;SHT31;66104;45.456;11.064;2023-04-28T07:13:13;16.02;58.43
68746;SHT31;66104;45.456;11.064;2023-04-28T07:15:51;16.10;58.01
68746;SHT31;66104;45.456;11.064;2023-04-28T07:18:30;16.16;57.68
68746;SHT31;66104;45.456;11.064;2023-04-28T07:21:08;16.23;57.26
68746;SHT31;66104;45.456;11.064;2023-04-28T07:23:48;16.30;57.23
68746;SHT31;66104;45.456;11.064;2023-04-28T07:26:26;16.37;56.17
68746;SHT31;66104;45.456;11.064;2023-04-28T07:29:05;16.44;55.07
68746;SHT31;66104;45.456;11.064;2023-04-28T07:31:43;16.50;54.80
68746;SHT31;66104;45.456;11.064;2023-04-28T07:34:23;16.57;54.59
68746;SHT31;66104;45.456;11.064;2023-04-28T07:37:02;16.64;52.50
68746;SHT31;66104;45.456;11.064;2023-04-28T07:39:42;16.70;50.54
68746;SHT31;66104;45.456;11.064;2023-04-28T07:42:22;16.78;50.16
68746;SHT31;66104;45.456;11.064;2023-04-28T07:45:03;16.84;50.24
68746;SHT31;66104;45.456;11.064;2023-04-28T07:47:46;16.93;49.56
68746;SHT31;66104;45.456;11.064;2023-04-28T07:50:26;17.02;48.72
68746;SHT31;66104;45.456;11.064;2023-04-28T07:53:05;17.12;48.33
68746;SHT31;66104;45.456;11.064;2023-04-28T07:55:48;17.20;48.22
68746;SHT31;66104;45.456;11.064;2023-04-28T07:58:28;17.26;48.36
68746;SHT31;66104;45.456;11.064;2023-04-28T08:01:08;17.32;49.30
68746;SHT31;66104;45.456;11.064;2023-04-28T08:03:46;17.37;49.12
68746;SHT31;66104;45.456;11.064;2023-04-28T08:06:27;17.42;48.98
68746;SHT31;66104;45.456;11.064;2023-04-28T08:09:08;17.47;49.17
68746;SHT31;66104;45.456;11.064;2023-04-28T08:11:48;17.50;49.61
68746;SHT31;66104;45.456;11.064;2023-04-28T08:14:29;17.51;49.88
68746;SHT31;66104;45.456;11.064;2023-04-28T08:17:15;17.51;50.01
68746;SHT31;66104;45.456;11.064;2023-04-28T08:19:55;17.53;50.27
68746;SHT31;66104;45.456;11.064;2023-04-28T08:22:34;17.56;50.44
68746;SHT31;66104;45.456;11.064;2023-04-28T08:25:17;17.57;50.41
68746;SHT31;66104;45.456;11.064;2023-04-28T08:27:56;17.59;50.48
68746;SHT31;66104;45.456;11.064;2023-04-28T08:30:35;17.65;50.55
68746;SHT31;66104;45.456;11.064;2023-04-28T08:33:13;17.73;50.61
68746;SHT31;66104;45.456;11.064;2023-04-28T08:35:52;17.83;50.53
68746;SHT31;66104;45.456;11.064;2023-04-28T08:38:32;17.95;50.44
68746;SHT31;66104;45.456;11.064;2023-04-28T08:41:09;18.07;50.24
68746;SHT31;66104;45.456;11.064;2023-04-28T08:43:48;18.18;49.88
68746;SHT31;66104;45.456;11.064;2023-04-28T08:46:27;18.27;49.94
68746;SHT31;66104;45.456;11.064;2023-04-28T08:49:13;18.36;50.11
68746;SHT31;66104;45.456;11.064;2023-04-28T08:51:56;18.41;50.20
68746;SHT31;66104;45.456;11.064;2023-04-28T08:54:41;18.46;50.38
68746;SHT31;66104;45.456;11.064;2023-04-28T08:57:25;18.50;50.44
68746;SHT31;66104;45.456;11.064;2023-04-28T09:00:10;18.55;49.87
68746;SHT31;66104;45.456;11.064;2023-04-28T09:02:53;18.59;49.17
68746;SHT31;66104;45.456;11.064;2023-04-28T09:05:33;18.58;49.36
68746;SHT31;66104;45.456;11.064;2023-04-28T09:08:11;18.62;48.86
68746;SHT31;66104;45.456;11.064;2023-04-28T09:10:59;18.63;48.16
68746;SHT31;66104;45.456;11.064;2023-04-28T09:13:46;18.65;48.26
68746;SHT31;66104;45.456;11.064;2023-04-28T09:16:26;18.78;46.44
68746;SHT31;66104;45.456;11.064;2023-04-28T09:19:17;18.86;44.11
68746;SHT31;66104;45.456;11.064;2023-04-28T09:21:54;18.87;44.36
68746;SHT31;66104;45.456;11.064;2023-04-28T09:24:52;18.84;42.94
68746;SHT31;66104;45.456;11.064;2023-04-28T09:27:42;18.82;43.71
68746;SHT31;66104;45.456;11.064;2023-04-28T09:33:16;18.88;43.61
68746;SHT31;66104;45.456;11.064;2023-04-28T09:35:54;18.93;43.67
68746;SHT31;66104;45.456;11.064;2023-04-28T09:38:39;18.97;42.71
68746;SHT31;66104;45.456;11.064;2023-04-28T09:41:23;19.05;42.53
68746;SHT31;66104;45.456;11.064;2023-04-28T09:44:16;19.12;42.46
68746;SHT31;66104;45.456;11.064;2023-04-28T09:46:54;19.22;41.80
68746;SHT31;66104;45.456;11.064;2023-04-28T09:49:56;19.32;40.86
68746;SHT31;66104;45.456;11.064;2023-04-28T09:52:34;19.44;40.60
68746;SHT31;66104;45.456;11.064;2023-04-28T09:55:13;19.54;40.08
68746;SHT31;66104;45.456;11.064;2023-04-28T09:57:52;19.62;40.19
68746;SHT31;66104;45.456;11.064;2023-04-28T10:00:36;19.70;39.76
68746;SHT31;66104;45.456;11.064;2023-04-28T10:03:16;19.79;39.00
68746;SHT31;66104;45.456;11.064;2023-04-28T10:05:58;19.88;38.76
68746;SHT31;66104;45.456;11.064;2023-04-28T10:08:37;19.96;39.06
68746;SHT31;66104;45.456;11.064;2023-04-28T10:11:16;20.04;38.39
68746;SHT31;66104;45.456;11.064;2023-04-28T10:13:55;20.06;37.59
68746;SHT31;66104;45.456;11.064;2023-04-28T10:16:33;20.08;37.39
68746;SHT31;66104;45.456;11.064;2023-04-28T10:19:13;20.14;37.12
68746;SHT31;66104;45.456;11.064;2023-04-28T10:21:56;20.20;36.43
68746;SHT31;66104;45.456;11.064;2023-04-28T10:25:19;20.26;36.06
68746;SHT31;66104;45.456;11.064;2023-04-28T10:28:08;20.31;35.93
68746;SHT31;66104;45.456;11.064;2023-04-28T10:33:49;20.49;34.16
68746;SHT31;66104;45.456;11.064;2023-04-28T10:36:47;20.51;34.14
68746;SHT31;66104;45.456;11.064;2023-04-28T10:39:26;20.48;34.59
68746;SHT31;66104;45.456;11.064;2023-04-28T10:42:03;20.38;34.93
68746;SHT31;66104;45.456;11.064;2023-04-28T10:45:16;20.28;35.46
68746;SHT31;66104;45.456;11.064;2023-04-28T10:48:55;20.27;35.85
68746;SHT31;66104;45.456;11.064;2023-04-28T10:51:32;20.24;34.29
68746;SHT31;66104;45.456;11.064;2023-04-28T10:54:16;20.17;32.82
68746;SHT31;66104;45.456;11.064;2023-04-28T10:59:52;20.12;34.73
68746;SHT31;66104;45.456;11.064;2023-04-28T11:03:02;20.24;34.62
68746;SHT31;66104;45.456;11.064;2023-04-28T11:05:40;20.33;34.80
68746;SHT31;66104;45.456;11.064;2023-04-28T11:08:56;20.43;34.13
68746;SHT31;66104;45.456;11.064;2023-04-28T11:11:35;20.55;34.24
68746;SHT31;66104;45.456;11.064;2023-04-28T11:14:34;20.64;32.54
68746;SHT31;66104;45.456;11.064;2023-04-28T11:17:11;20.70;32.89
68746;SHT31;66104;45.456;11.064;2023-04-28T11:20:05;20.78;32.67
68746;SHT31;66104;45.456;11.064;2023-04-28T11:22:52;20.84;32.52
68746;SHT31;66104;45.456;11.064;2023-04-28T11:25:29;20.87;33.12
68746;SHT31;66104;45.456;11.064;2023-04-28T11:28:30;20.96;32.79
68746;SHT31;66104;45.456;11.064;2023-04-28T11:31:17;21.03;32.65
68746;SHT31;66104;45.456;11.064;2023-04-28T11:34:01;21.13;32.09
68746;SHT31;66104;45.456;11.064;2023-04-28T11:36:42;21.23;32.53
68746;SHT31;66104;45.456;11.064;2023-04-28T11:39:26;21.30;33.42
68746;SHT31;66104;45.456;11.064;2023-04-28T11:42:09;21.37;33.32
68746;SHT31;66104;45.456;11.064;2023-04-28T11:44:51;21.38;33.11
68746;SHT31;66104;45.456;11.064;2023-04-28T11:47:30;21.42;32.05
68746;SHT31;66104;45.456;11.064;2023-04-28T11:50:09;21.43;31.66
68746;SHT31;66104;45.456;11.064;2023-04-28T11:52:50;21.48;32.22
68746;SHT31;66104;45.456;11.064;2023-04-28T11:55:28;21.56;32.47
68746;SHT31;66104;45.456;11.064;2023-04-28T11:58:19;21.68;32.92
68746;SHT31;66104;45.456;11.064;2023-04-28T12:01:09;21.74;32.73
68746;SHT31;66104;45.456;11.064;2023-04-28T12:03:48;21.83;33.16
68746;SHT31;66104;45.456;11.064;2023-04-28T12:06:25;21.93;33.78
68746;SHT31;66104;45.456;11.064;2023-04-28T12:09:02;22.02;34.45
68746;SHT31;66104;45.456;11.064;2023-04-28T12:11:56;22.13;34.48
68746;SHT31;66104;45.456;11.064;2023-04-28T12:17:30;22.31;34.52
68746;SHT31;66104;45.456;11.064;2023-04-28T12:20:09;22.37;33.98
68746;SHT31;66104;45.456;11.064;2023-04-28T12:23:06;22.40;34.14
68746;SHT31;66104;45.456;11.064;2023-04-28T12:25:44;22.41;34.24
68746;SHT31;66104;45.456;11.064;2023-04-28T12:28:22;22.46;33.58
68746;SHT31;66104;45.456;11.064;2023-04-28T12:31:11;22.50;32.63
68746;SHT31;66104;45.456;11.064;2023-04-28T12:33:49;22.53;32.63
68746;SHT31;66104;45.456;11.064;2023-04-28T12:36:25;22.54;32.50
68746;SHT31;66104;45.456;11.064;2023-04-28T12:39:04;22.51;33.25
68746;SHT31;66104;45.456;11.064;2023-04-28T12:41:47;22.57;33.30
68746;SHT31;66104;45.456;11.064;2023-04-28T12:44:25;22.65;33.04
68746;SHT31;66104;45.456;11.064;2023-04-28T12:47:07;22.71;32.65
68746;SHT31;66104;45.456;11.064;2023-04-28T12:49:44;22.77;32.52
68746;SHT31;66104;45.456;11.064;2023-04-28T12:52:22;22.78;32.75
68746;SHT31;66104;45.456;11.064;2023-04-28T12:55:02;22.81;33.08
68746;SHT31;66104;45.456;11.064;2023-04-28T12:57:43;22.85;33.15
68746;SHT31;66104;45.456;11.064;2023-04-28T13:00:21;22.79;33.22
68746;SHT31;66104;45.456;11.064;2023-04-28T13:02:59;22.59;33.73
68746;SHT31;66104;45.456;11.064;2023-04-28T13:05:37;22.47;34.47
68746;SHT31;66104;45.456;11.064;2023-04-28T13:08:14;22.50;34.83
68746;SHT31;66104;45.456;11.064;2023-04-28T13:10:53;22.65;34.71
68746;SHT31;66104;45.456;11.064;2023-04-28T13:13:35;22.74;34.77
68746;SHT31;66104;45.456;11.064;2023-04-28T13:16:13;22.85;34.52
68746;SHT31;66104;45.456;11.064;2023-04-28T13:18:53;22.90;34.40
68746;SHT31;66104;45.456;11.064;2023-04-28T13:21:30;22.79;33.23
68746;SHT31;66104;45.456;11.064;2023-04-28T13:24:07;22.64;33.50
68746;SHT31;66104;45.456;11.064;2023-04-28T13:26:44;22.62;34.13
68746;SHT31;66104;45.456;11.064;2023-04-28T13:29:23;22.64;33.04
68746;SHT31;66104;45.456;11.064;2023-04-28T13:32:00;22.67;33.35
68746;SHT31;66104;45.456;11.064;2023-04-28T13:34:39;22.69;33.34
68746;SHT31;66104;45.456;11.064;2023-04-28T13:37:17;22.76;33.22
68746;SHT31;66104;45.456;11.064;2023-04-28T13:39:54;22.82;33.28
68746;SHT31;66104;45.456;11.064;2023-04-28T13:42:33;22.87;33.02
68746;SHT31;66104;45.456;11.064;2023-04-28T13:45:12;22.91;32.77
68746;SHT31;66104;45.456;11.064;2023-04-28T13:47:51;22.93;32.92
68746;SHT31;66104;45.456;11.064;2023-04-28T13:50:30;22.95;32.82
68746;SHT31;66104;45.456;11.064;2023-04-28T13:53:08;22.98;33.03
68746;SHT31;66104;45.456;11.064;2023-04-28T13:55:46;22.93;32.94
68746;SHT31;66104;45.456;11.064;2023-04-28T13:58:25;22.92;33.23
68746;SHT31;66104;45.456;11.064;2023-04-28T14:01:03;22.98;33.20
68746;SHT31;66104;45.456;11.064;2023-04-28T14:03:41;22.99;32.83
68746;SHT31;66104;45.456;11.064;2023-04-28T14:06:19;22.93;32.92
68746;SHT31;66104;45.456;11.064;2023-04-28T14:08:57;22.90;32.85
68746;SHT31;66104;45.456;11.064;2023-04-28T14:11:36;22.88;32.97
68746;SHT31;66104;45.456;11.064;2023-04-28T14:14:15;22.81;33.00
68746;SHT31;66104;45.456;11.064;2023-04-28T14:16:54;22.82;33.33
68746;SHT31;66104;45.456;11.064;2023-04-28T14:19:33;22.89;33.31
68746;SHT31;66104;45.456;11.064;2023-04-28T14:22:12;22.98;33.45
68746;SHT31;66104;45.456;11.064;2023-04-28T14:24:50;23.03;33.56
68746;SHT31;66104;45.456;11.064;2023-04-28T14:27:29;23.06;33.22
68746;SHT31;66104;45.456;11.064;2023-04-28T14:30:10;23.05;32.99
68746;SHT31;66104;45.456;11.064;2023-04-28T14:32:50;23.04;33.29
68746;SHT31;66104;45.456;11.064;2023-04-28T14:35:29;23.08;33.38
68746;SHT31;66104;45.456;11.064;2023-04-28T14:38:07;23.06;33.21
68746;SHT31;66104;45.456;11.064;2023-04-28T14:40:46;22.97;33.45
68746;SHT31;66104;45.456;11.064;2023-04-28T14:43:24;22.87;33.47
68746;SHT31;66104;45.456;11.064;2023-04-28T14:46:03;22.80;33.77
68746;SHT31;66104;45.456;11.064;2023-04-28T14:48:42;22.75;34.08
68746;SHT31;66104;45.456;11.064;2023-04-28T14:51:20;22.75;34.52
68746;SHT31;66104;45.456;11.064;2023-04-28T14:53:57;22.70;34.29
68746;SHT31;66104;45.456;11.064;2023-04-28T14:56:35;22.52;34.55
68746;SHT31;66104;45.456;11.064;2023-04-28T14:59:12;22.45;35.05
68746;SHT31;66104;45.456;11.064;2023-04-28T15:01:50;22.48;35.40
68746;SHT31;66104;45.456;11.064;2023-04-28T15:04:28;22.58;35.60
68746;SHT31;66104;45.456;11.064;2023-04-28T15:07:06;22.68;35.41
68746;SHT31;66104;45.456;11.064;2023-04-28T15:09:44;22.74;35.28
68746;SHT31;66104;45.456;11.064;2023-04-28T15:12:21;22.78;35.39
68746;SHT31;66104;45.456;11.064;2023-04-28T15:15:00;22.85;35.61
68746;SHT31;66104;45.456;11.064;2023-04-28T15:17:39;22.88;35.62
68746;SHT31;66104;45.456;11.064;2023-04-28T15:20:18;22.90;35.70
68746;SHT31;66104;45.456;11.064;2023-04-28T15:22:57;22.92;35.68
68746;SHT31;66104;45.456;11.064;2023-04-28T15:25:34;22.92;35.89
68746;SHT31;66104;45.456;11.064;2023-04-28T15:28:11;22.82;36.24
68746;SHT31;66104;45.456;11.064;2023-04-28T15:30:49;22.73;36.57
68746;SHT31;66104;45.456;11.064;2023-04-28T15:33:27;22.73;36.77
68746;SHT31;66104;45.456;11.064;2023-04-28T15:36:04;22.78;36.80
68746;SHT31;66104;45.456;11.064;2023-04-28T15:38:43;22.85;37.07
68746;SHT31;66104;45.456;11.064;2023-04-28T15:41:20;22.89;37.15
68746;SHT31;66104;45.456;11.064;2023-04-28T15:43:57;22.89;37.38
68746;SHT31;66104;45.456;11.064;2023-04-28T15:46:34;22.77;37.82
68746;SHT31;66104;45.456;11.064;2023-04-28T15:49:13;22.73;37.52
68746;SHT31;66104;45.456;11.064;2023-04-28T15:51:50;22.67;37.92
68746;SHT31;66104;45.456;11.064;2023-04-28T15:54:32;22.51;38.85
68746;SHT31;66104;45.456;11.064;2023-04-28T15:57:15;22.41;39.71
68746;SHT31;66104;45.456;11.064;2023-04-28T15:59:54;22.38;40.04
68746;SHT31;66104;45.456;11.064;2023-04-28T16:02:36;22.37;39.33
68746;SHT31;66104;45.456;11.064;2023-04-28T16:05:15;22.35;39.93
68746;SHT31;66104;45.456;11.064;2023-04-28T16:07:53;22.29;40.18
68746;SHT31;66104;45.456;11.064;2023-04-28T16:10:31;22.18;40.24
68746;SHT31;66104;45.456;11.064;2023-04-28T16:13:09;22.09;40.25
68746;SHT31;66104;45.456;11.064;2023-04-28T16:15:47;22.02;40.31
68746;SHT31;66104;45.456;11.064;2023-04-28T16:18:24;21.94;40.07
68746;SHT31;66104;45.456;11.064;2023-04-28T16:21:03;21.82;40.59
68746;SHT31;66104;45.456;11.064;2023-04-28T16:23:44;21.71;40.99
68746;SHT31;66104;45.456;11.064;2023-04-28T16:26:24;21.61;40.90
68746;SHT31;66104;45.456;11.064;2023-04-28T16:29:04;21.51;41.14
68746;SHT31;66104;45.456;11.064;2023-04-28T16:31:45;21.42;41.71
68746;SHT31;66104;45.456;11.064;2023-04-28T16:34:23;21.36;42.04
68746;SHT31;66104;45.456;11.064;2023-04-28T16:37:03;21.35;41.70
68746;SHT31;66104;45.456;11.064;2023-04-28T16:39:43;21.33;41.63
68746;SHT31;66104;45.456;11.064;2023-04-28T16:42:22;21.33;42.15
68746;SHT31;66104;45.456;11.064;2023-04-28T16:45:01;21.33;41.81
68746;SHT31;66104;45.456;11.064;2023-04-28T16:47:43;21.33;41.96
68746;SHT31;66104;45.456;11.064;2023-04-28T16:50:22;21.36;42.20
68746;SHT31;66104;45.456;11.064;2023-04-28T16:53:00;21.36;42.14
68746;SHT31;66104;45.456;11.064;2023-04-28T16:55:38;21.36;41.89